Time;durP1;ratioP1;P1;durP2;ratioP2;P2;SDS_P1;SDS_P2;PMS_P1;PMS_P2;Temp;Humidity;BMP_temperature;BMP_pressure;BME280_temperature;BME280_humidity;BME280_pressure;Samples;Min_cycle;Max_cycle;Signal;HPM_P1;HPM_P2
2022/07/18 00:01:05;;;;;;;4.70;2.07;;;19.90;99.90;;;;;;5093824;28;20759;-81
2022/07/18 00:03:51;;;;;;;1.83;1.60;;;19.90;99.90;;;;;;5109494;28;20392;-81
2022/07/18 00:06:36;;;;;;;1.60;1.50;;;19.90;99.90;;;;;;5110313;28;20444;-80
2022/07/18 00:09:23;;;;;;;4.43;2.03;;;19.90;99.90;;;;;;5109443;28;20443;-81
2022/07/18 00:12:09;;;;;;;1.77;1.67;;;19.80;99.90;;;;;;5109570;28;20420;-82
2022/07/18 00:14:54;;;;;;;1.70;1.60;;;19.70;99.90;;;;;;5109534;28;20491;-82
2022/07/18 00:17:39;;;;;;;4.83;2.33;;;19.70;99.90;;;;;;5110081;28;20960;-82
2022/07/18 00:20:23;;;;;;;2.10;1.80;;;19.60;99.90;;;;;;5109828;28;20396;-82
2022/07/18 00:23:08;;;;;;;1.60;1.50;;;19.60;99.90;;;;;;5109761;28;20396;-81
2022/07/18 00:25:53;;;;;;;2.43;1.50;;;19.60;99.90;;;;;;5108492;28;20380;-83
2022/07/18 00:28:37;;;;;;;2.00;1.80;;;19.60;99.90;;;;;;5110161;28;20462;-82
2022/07/18 00:31:22;;;;;;;4.60;1.70;;;19.50;99.90;;;;;;5110277;28;20423;-82
2022/07/18 00:34:07;;;;;;;2.27;2.07;;;19.50;99.90;;;;;;5110271;28;20514;-81
2022/07/18 00:36:51;;;;;;;3.93;1.63;;;19.50;99.90;;;;;;5110087;28;20396;-82
2022/07/18 00:39:36;;;;;;;2.47;2.27;;;19.50;99.90;;;;;;5094534;28;20439;-82
2022/07/18 00:42:21;;;;;;;1.73;1.50;;;19.50;99.90;;;;;;5110123;28;20380;-82
2022/07/18 00:45:06;;;;;;;4.80;1.70;;;19.50;99.90;;;;;;5110332;28;20464;-82
2022/07/18 00:47:51;;;;;;;1.60;1.50;;;19.30;99.90;;;;;;5110802;28;20439;-82
2022/07/18 00:50:36;;;;;;;5.07;2.10;;;19.20;99.90;;;;;;5110171;28;20391;-82
2022/07/18 00:53:20;;;;;;;2.00;1.80;;;19.00;99.90;;;;;;5109665;28;20409;-82
2022/07/18 00:56:05;;;;;;;2.70;1.53;;;19.00;99.90;;;;;;5099263;28;20463;-82
2022/07/18 00:58:49;;;;;;;2.90;1.73;;;19.00;99.90;;;;;;5114368;28;20445;-82
2022/07/18 01:01:49;;;;;;;2.90;1.80;;;19.00;99.90;;;;;;5099033;28;20455;-82
2022/07/18 01:04:33;;;;;;;3.87;2.63;;;19.00;99.90;;;;;;5113994;28;20383;-82
2022/07/18 01:07:18;;;;;;;1.77;1.53;;;18.90;99.90;;;;;;5111990;28;20432;-82
2022/07/18 01:10:04;;;;;;;1.70;1.60;;;19.00;99.90;;;;;;5112656;28;20396;-82
2022/07/18 01:12:48;;;;;;;2.03;1.70;;;19.00;99.90;;;;;;5115039;28;20379;-82
2022/07/18 01:15:33;;;;;;;2.40;1.73;;;19.00;99.90;;;;;;5104697;28;20391;-80
2022/07/18 01:18:18;;;;;;;3.53;1.97;;;19.00;99.90;;;;;;5120371;28;20392;-80
2022/07/18 01:21:03;;;;;;;4.37;2.03;;;18.90;99.90;;;;;;5119510;28;20379;-81
2022/07/18 01:23:49;;;;;;;2.13;1.93;;;18.90;99.90;;;;;;5119412;28;20410;-79
2022/07/18 01:26:33;;;;;;;3.20;1.60;;;19.00;99.90;;;;;;5104681;28;20407;-81
2022/07/18 01:29:18;;;;;;;1.90;1.80;;;18.90;99.90;;;;;;5119975;28;20460;-81
2022/07/18 01:32:06;;;;;;;2.60;1.40;;;18.70;99.90;;;;;;5119868;28;20412;-80
2022/07/18 01:34:51;;;;;;;5.63;2.40;;;18.80;99.90;;;;;;5115224;28;20433;-82
2022/07/18 01:37:37;;;;;;;4.17;2.10;;;18.80;99.90;;;;;;5117265;28;20398;-81
2022/07/18 01:40:22;;;;;;;2.17;1.97;;;18.80;99.90;;;;;;5072003;28;20424;-82
2022/07/18 01:43:06;;;;;;;2.80;1.60;;;18.70;99.90;;;;;;5071410;28;20382;-81
2022/07/18 01:45:52;;;;;;;3.27;1.97;;;18.70;99.90;;;;;;5071480;28;20789;-82
2022/07/18 01:48:38;;;;;;;3.20;2.00;;;18.60;99.90;;;;;;5071084;28;20460;-82
2022/07/18 01:51:23;;;;;;;6.40;1.90;;;18.70;99.90;;;;;;5070955;28;20510;-82
2022/07/18 01:54:07;;;;;;;2.10;1.90;;;18.70;99.90;;;;;;5071181;28;20406;-81
2022/07/18 01:56:52;;;;;;;3.03;1.90;;;18.60;99.90;;;;;;5070701;28;20421;-82
2022/07/18 01:59:36;;;;;;;2.10;1.43;;;18.50;99.90;;;;;;5071168;28;20405;-82
2022/07/18 02:02:21;;;;;;;3.70;2.03;;;18.60;99.90;;;;;;5069705;28;20461;-82
2022/07/18 02:05:06;;;;;;;2.60;1.73;;;18.50;99.90;;;;;;5069751;28;20414;-82
2022/07/18 02:07:51;;;;;;;1.73;1.63;;;18.50;99.90;;;;;;5069575;28;20553;-82
2022/07/18 02:10:35;;;;;;;2.57;2.37;;;18.50;99.90;;;;;;5083915;28;20400;-82
2022/07/18 02:13:20;;;;;;;6.03;4.33;;;18.50;99.90;;;;;;5113654;28;20408;-82
2022/07/18 02:16:05;;;;;;;6.50;2.50;;;18.40;99.90;;;;;;5113513;28;20376;-82
2022/07/18 02:18:49;;;;;;;3.33;2.00;;;18.40;99.90;;;;;;5113479;28;20411;-82
2022/07/18 02:21:34;;;;;;;3.60;1.87;;;18.30;99.90;;;;;;5114770;28;20437;-82
2022/07/18 02:24:18;;;;;;;2.27;1.80;;;18.40;99.90;;;;;;5114449;28;20388;-81
2022/07/18 02:27:04;;;;;;;2.53;1.90;;;18.20;99.90;;;;;;5102731;28;20372;-81
2022/07/18 02:29:48;;;;;;;4.43;2.47;;;18.10;99.90;;;;;;5118211;28;20451;-81
2022/07/18 02:32:34;;;;;;;2.23;1.73;;;18.10;99.90;;;;;;5102750;28;20744;-82
2022/07/18 02:35:19;;;;;;;1.60;1.50;;;18.10;99.90;;;;;;5118355;28;20474;-81
2022/07/18 02:38:03;;;;;;;2.37;2.10;;;18.20;99.90;;;;;;5117796;28;20411;-81
2022/07/18 02:40:48;;;;;;;2.40;2.20;;;18.10;99.90;;;;;;5117023;28;20403;-82
2022/07/18 02:43:32;;;;;;;1.50;1.40;;;18.10;99.90;;;;;;5117392;28;20376;-81
2022/07/18 02:46:16;;;;;;;2.17;1.80;;;18.10;99.90;;;;;;5117874;28;20410;-81
2022/07/18 02:49:01;;;;;;;1.97;1.70;;;18.00;99.90;;;;;;5102928;28;20448;-81
2022/07/18 02:51:46;;;;;;;2.23;1.50;;;17.90;99.90;;;;;;5096717;28;20403;-79
2022/07/18 02:54:34;;;;;;;6.03;2.00;;;18.10;99.90;;;;;;5095937;28;20377;-82
2022/07/18 02:57:18;;;;;;;4.13;2.57;;;18.00;99.90;;;;;;5095162;28;20415;-81
2022/07/18 03:00:08;;;;;;;3.43;1.87;;;18.00;99.90;;;;;;5111338;28;20391;-81
2022/07/18 03:02:53;;;;;;;9.23;2.70;;;18.00;99.90;;;;;;5110295;28;20401;-80
2022/07/18 03:05:38;;;;;;;7.40;1.77;;;18.00;99.90;;;;;;5094187;28;20380;-81
2022/07/18 03:08:22;;;;;;;2.47;2.00;;;18.00;99.90;;;;;;5110339;28;20439;-82
2022/07/18 03:11:07;;;;;;;1.90;1.70;;;17.90;99.90;;;;;;5110210;28;20748;-82
2022/07/18 03:13:51;;;;;;;1.83;1.73;;;17.80;99.90;;;;;;5095022;28;20379;-81
2022/07/18 03:16:36;;;;;;;2.40;1.60;;;17.80;99.90;;;;;;5110146;28;20403;-82
2022/07/18 03:19:21;;;;;;;2.43;1.40;;;17.80;99.90;;;;;;5108721;28;20899;-81
2022/07/18 03:22:07;;;;;;;1.80;1.50;;;17.80;99.90;;;;;;5110126;28;20392;-81
2022/07/18 03:24:52;;;;;;;5.07;2.03;;;17.80;99.90;;;;;;5093992;28;20462;-82
2022/07/18 03:27:37;;;;;;;1.80;1.67;;;17.90;99.90;;;;;;5110901;28;20395;-81
2022/07/18 03:30:22;;;;;;;8.20;2.37;;;17.90;99.90;;;;;;5110170;28;20404;-82
2022/07/18 03:33:08;;;;;;;3.23;2.20;;;17.90;99.90;;;;;;5110381;28;20395;-81
2022/07/18 03:35:52;;;;;;;3.30;1.60;;;17.80;99.90;;;;;;5110552;28;20515;-81
2022/07/18 03:38:37;;;;;;;1.90;1.80;;;17.80;99.90;;;;;;5109778;28;20384;-81
2022/07/18 03:41:22;;;;;;;3.60;1.90;;;17.80;99.90;;;;;;5110311;28;20457;-80
2022/07/18 03:44:06;;;;;;;4.03;2.00;;;17.80;99.90;;;;;;5095155;28;20383;-81
2022/07/18 03:46:52;;;;;;;5.70;1.97;;;17.70;99.90;;;;;;5117213;28;20446;-81
2022/07/18 03:49:36;;;;;;;2.07;1.80;;;17.70;99.90;;;;;;5137394;27;20457;-82
2022/07/18 03:52:20;;;;;;;2.20;2.00;;;17.70;99.90;;;;;;5136728;27;20453;-82
2022/07/18 03:55:05;;;;;;;2.20;2.00;;;17.60;99.90;;;;;;5110295;28;20375;-82
2022/07/18 03:57:50;;;;;;;2.70;2.13;;;17.60;99.90;;;;;;5094761;28;20393;-82
2022/07/18 04:00:35;;;;;;;4.03;1.97;;;17.60;99.90;;;;;;5110505;28;20436;-82
2022/07/18 04:03:19;;;;;;;4.47;2.50;;;17.60;99.90;;;;;;5094635;28;20392;-81
2022/07/18 04:06:03;;;;;;;3.77;1.97;;;17.60;99.90;;;;;;5110711;28;20392;-81
2022/07/18 04:08:48;;;;;;;2.30;2.10;;;17.70;99.90;;;;;;5095472;28;20531;-82
2022/07/18 04:11:33;;;;;;;1.80;1.70;;;17.60;99.90;;;;;;5110740;28;20399;-81
2022/07/18 04:14:17;;;;;;;3.27;2.07;;;17.30;99.90;;;;;;5081552;28;20804;-81
2022/07/18 04:17:02;;;;;;;1.87;1.77;;;17.30;99.90;;;;;;5121160;28;20415;-82
2022/07/18 04:19:48;;;;;;;3.10;2.23;;;17.10;99.90;;;;;;5122265;28;20492;-81
2022/07/18 04:22:44;;;;;;;9.03;2.53;;;17.30;99.90;;;;;;5130997;28;20467;-82
2022/07/18 04:25:35;;;;;;;4.10;3.43;;;17.30;99.90;;;;;;5116471;28;20754;-82
2022/07/18 04:28:19;;;;;;;3.60;2.47;;;17.30;99.90;;;;;;5142748;27;20496;-80
2022/07/18 04:31:04;;;;;;;2.47;1.73;;;17.30;99.90;;;;;;5140363;27;20424;-82
2022/07/18 04:33:48;;;;;;;2.53;1.97;;;17.20;99.90;;;;;;5155763;27;20386;-83
2022/07/18 04:36:33;;;;;;;5.60;2.30;;;16.90;99.90;;;;;;5143897;27;20433;-82
2022/07/18 04:39:17;;;;;;;1.80;1.70;;;16.90;99.90;;;;;;5162494;27;20385;-81
2022/07/18 04:42:02;;;;;;;2.70;2.07;;;17.10;99.90;;;;;;5162811;27;20410;-79
2022/07/18 04:44:46;;;;;;;2.17;2.00;;;17.30;99.90;;;;;;5160429;27;20406;-79
2022/07/18 04:47:30;;;;;;;3.00;2.10;;;17.50;99.90;;;;;;5145284;27;20421;-80
2022/07/18 04:50:15;;;;;;;4.20;3.00;;;17.60;99.90;;;;;;5142802;27;20410;-80
2022/07/18 04:52:59;;;;;;;5.50;2.30;;;17.60;99.90;;;;;;5135915;28;20462;-83
2022/07/18 04:55:44;;;;;;;3.70;2.50;;;17.80;99.90;;;;;;5134256;28;20426;-82
2022/07/18 04:58:29;;;;;;;2.57;2.13;;;17.90;99.90;;;;;;5119159;28;20374;-82
2022/07/18 05:01:13;;;;;;;3.80;2.30;;;18.10;99.90;;;;;;5133668;28;20508;-83
2022/07/18 05:03:57;;;;;;;5.73;2.63;;;18.20;99.90;;;;;;5135362;28;20387;-83
2022/07/18 05:06:42;;;;;;;2.97;2.23;;;18.20;99.90;;;;;;5131708;28;20406;-83
2022/07/18 05:09:28;;;;;;;2.87;2.40;;;18.40;99.90;;;;;;5127776;28;20518;-83
2022/07/18 05:12:12;;;;;;;2.60;1.97;;;18.20;99.90;;;;;;5112321;28;20540;-83
2022/07/18 05:14:57;;;;;;;2.23;2.03;;;18.20;99.90;;;;;;5096413;28;20461;-82
2022/07/18 05:17:43;;;;;;;2.67;2.03;;;18.30;99.90;;;;;;5111253;28;20384;-82
2022/07/18 05:20:27;;;;;;;1.33;1.23;;;18.10;99.90;;;;;;5119126;28;20484;-81
2022/07/18 05:23:15;;;;;;;1.90;1.53;;;18.10;99.90;;;;;;5115627;28;20427;-80
2022/07/18 05:25:59;;;;;;;3.83;2.27;;;19.30;99.90;;;;;;5128157;28;20436;-80
2022/07/18 05:28:43;;;;;;;2.40;2.07;;;20.00;99.90;;;;;;5119534;27;20481;-81
2022/07/18 05:31:27;;;;;;;3.67;2.10;;;20.70;99.90;;;;;;5118756;28;20434;-81
2022/07/18 05:34:12;;;;;;;2.87;2.47;;;21.30;99.90;;;;;;5108860;28;20447;-79
2022/07/18 05:36:56;;;;;;;2.43;2.07;;;21.70;99.90;;;;;;5108878;28;20393;-81
2022/07/18 05:39:40;;;;;;;2.00;1.90;;;22.00;99.90;;;;;;5108404;28;20392;-80
2022/07/18 05:42:25;;;;;;;1.80;1.70;;;22.00;99.90;;;;;;5110994;28;20449;-81
2022/07/18 05:45:11;;;;;;;7.00;2.20;;;22.20;99.90;;;;;;5119447;28;20929;-80
2022/07/18 05:47:56;;;;;;;2.50;1.90;;;21.70;99.90;;;;;;5123178;28;20431;-81
2022/07/18 05:50:40;;;;;;;3.93;1.67;;;22.00;99.90;;;;;;5107054;28;20430;-81
2022/07/18 05:53:24;;;;;;;2.03;1.60;;;21.90;99.90;;;;;;5119189;28;20605;-81
2022/07/18 05:56:09;;;;;;;3.50;1.90;;;21.70;99.90;;;;;;5122684;27;20436;-81
2022/07/18 05:58:54;;;;;;;4.10;2.27;;;22.00;99.90;;;;;;5114174;28;20953;-80
2022/07/18 06:01:38;;;;;;;2.60;2.07;;;22.20;99.90;;;;;;5112645;28;20463;-81
2022/07/18 06:04:23;;;;;;;2.20;1.93;;;22.30;99.30;;;;;;5119488;28;20426;-81
2022/07/18 06:07:07;;;;;;;5.63;1.90;;;22.30;99.00;;;;;;5128646;28;20468;-80
2022/07/18 06:09:53;;;;;;;3.23;2.97;;;22.50;98.10;;;;;;5128159;27;20465;-80
2022/07/18 06:12:38;;;;;;;2.90;1.90;;;22.50;97.80;;;;;;5115137;28;20439;-80
2022/07/18 06:15:23;;;;;;;3.40;2.30;;;22.70;97.00;;;;;;5125742;27;20438;-80
2022/07/18 06:18:08;;;;;;;5.10;2.40;;;22.60;96.20;;;;;;5116614;28;20476;-80
2022/07/18 06:20:52;;;;;;;2.00;1.90;;;22.70;95.30;;;;;;5114319;28;20452;-80
2022/07/18 06:23:38;;;;;;;7.43;2.20;;;22.80;94.80;;;;;;5123464;28;20431;-80
2022/07/18 06:26:23;;;;;;;6.50;2.20;;;22.80;94.40;;;;;;5128355;27;20445;-81
2022/07/18 06:29:08;;;;;;;2.33;2.07;;;22.60;96.20;;;;;;5121061;28;20470;-80
2022/07/18 06:31:52;;;;;;;2.13;1.83;;;22.70;94.20;;;;;;5127968;28;20428;-79
2022/07/18 06:34:36;;;;;;;5.23;2.77;;;22.20;93.50;;;;;;5131713;27;20456;-80
2022/07/18 06:37:21;;;;;;;1.90;1.80;;;21.90;95.00;;;;;;5108487;27;20465;-79
2022/07/18 06:40:07;;;;;;;3.93;1.93;;;21.10;95.90;;;;;;5109324;28;20418;-79
2022/07/18 06:42:53;;;;;;;2.07;1.90;;;21.90;95.40;;;;;;5113668;27;20571;-80
2022/07/18 06:45:38;;;;;;;3.50;2.20;;;22.10;91.60;;;;;;5117051;28;20445;-80
2022/07/18 06:48:22;;;;;;;3.80;1.77;;;22.50;93.60;;;;;;5120997;27;20467;-81
2022/07/18 06:51:08;;;;;;;4.63;2.20;;;22.30;94.20;;;;;;5124092;27;20461;-81
2022/07/18 06:53:52;;;;;;;2.50;2.00;;;22.50;93.10;;;;;;5123392;27;20426;-81
2022/07/18 06:56:37;;;;;;;2.87;1.40;;;22.60;91.40;;;;;;5098354;28;20450;-81
2022/07/18 06:59:22;;;;;;;2.60;2.40;;;22.80;91.60;;;;;;5120077;28;20937;-81
2022/07/18 07:02:06;;;;;;;2.30;2.10;;;22.90;91.10;;;;;;5126578;27;20471;-80
2022/07/18 07:04:51;;;;;;;2.73;2.20;;;23.00;90.80;;;;;;5124646;28;20437;-80
2022/07/18 07:07:36;;;;;;;1.90;1.80;;;23.00;90.60;;;;;;5111581;28;20423;-80
2022/07/18 07:10:22;;;;;;;3.97;2.20;;;23.20;90.50;;;;;;5122855;28;20461;-80
2022/07/18 07:13:06;;;;;;;2.07;1.50;;;23.10;90.90;;;;;;5113193;27;21013;-79
2022/07/18 07:15:51;;;;;;;5.67;2.47;;;23.20;90.90;;;;;;5125559;27;20468;-81
2022/07/18 07:18:35;;;;;;;1.73;1.60;;;23.30;90.60;;;;;;5125564;28;20446;-81
2022/07/18 07:21:20;;;;;;;3.63;2.17;;;23.40;90.00;;;;;;5125083;27;20431;-80
2022/07/18 07:24:05;;;;;;;2.37;1.90;;;22.90;86.20;;;;;;5123666;28;20430;-81
2022/07/18 07:26:49;;;;;;;3.63;1.70;;;22.70;88.80;;;;;;5120228;28;20420;-81
2022/07/18 07:29:34;;;;;;;5.20;1.83;;;22.30;87.40;;;;;;5103423;28;20447;-81
2022/07/18 07:32:18;;;;;;;6.90;2.00;;;22.10;87.90;;;;;;5118816;28;20414;-79
2022/07/18 07:35:06;;;;;;;3.00;2.40;;;22.10;83.40;;;;;;5113869;28;20443;-80
2022/07/18 07:37:53;;;;;;;2.43;2.20;;;22.40;87.30;;;;;;5116115;28;20540;-79
2022/07/18 07:40:37;;;;;;;5.03;1.80;;;22.60;85.90;;;;;;5112103;28;20418;-80
2022/07/18 07:43:23;;;;;;;3.97;1.57;;;22.80;84.00;;;;;;5093203;28;20488;-80
2022/07/18 07:46:10;;;;;;;2.80;1.53;;;22.90;85.70;;;;;;5112561;28;20449;-81
2022/07/18 07:48:55;;;;;;;2.73;1.47;;;23.10;84.50;;;;;;5114498;28;20462;-81
2022/07/18 07:51:39;;;;;;;1.67;1.57;;;23.30;83.80;;;;;;5118734;27;20481;-81
2022/07/18 07:54:24;;;;;;;2.50;2.27;;;23.10;82.30;;;;;;5112883;28;20434;-80
2022/07/18 07:57:08;;;;;;;3.07;2.10;;;23.00;85.00;;;;;;5095068;28;20834;-78
2022/07/18 07:59:52;;;;;;;2.10;1.90;;;23.40;83.90;;;;;;5108443;27;21185;-80
2022/07/18 08:02:37;;;;;;;2.33;2.00;;;23.60;83.10;;;;;;5090295;28;20487;-79
2022/07/18 08:05:21;;;;;;;4.27;2.07;;;23.70;83.10;;;;;;5105598;28;20438;-77
2022/07/18 08:08:07;;;;;;;2.83;1.73;;;23.80;83.10;;;;;;5108102;28;20459;-80
2022/07/18 08:10:53;;;;;;;2.37;1.90;;;23.90;82.60;;;;;;5091560;28;20474;-80
2022/07/18 08:13:37;;;;;;;2.73;1.87;;;23.90;81.60;;;;;;5111902;27;20496;-81
2022/07/18 08:16:22;;;;;;;1.93;1.80;;;23.50;82.00;;;;;;5091548;28;20497;-79
2022/07/18 08:19:06;;;;;;;2.63;2.27;;;23.60;80.90;;;;;;5113955;28;20434;-81
2022/07/18 08:21:51;;;;;;;1.63;1.53;;;23.30;77.20;;;;;;5108925;28;20441;-79
2022/07/18 08:24:35;;;;;;;4.00;1.90;;;23.40;77.40;;;;;;5118744;28;20446;-80
2022/07/18 08:27:19;;;;;;;1.77;1.57;;;23.60;81.90;;;;;;5115825;28;20419;-79
2022/07/18 08:30:04;;;;;;;5.27;2.00;;;23.40;79.20;;;;;;5094563;28;20543;-80
2022/07/18 08:32:49;;;;;;;1.60;1.50;;;23.40;76.40;;;;;;5118700;28;20435;-80
2022/07/18 08:35:34;;;;;;;7.33;2.20;;;23.60;77.60;;;;;;5110377;28;20581;-81
2022/07/18 08:38:20;;;;;;;1.80;1.70;;;23.80;80.10;;;;;;5115148;28;20434;-80
2022/07/18 08:41:05;;;;;;;3.70;2.17;;;23.70;72.00;;;;;;5117792;28;20469;-79
2022/07/18 08:43:51;;;;;;;1.60;1.50;;;23.80;75.90;;;;;;5109606;28;20450;-81
2022/07/18 08:46:38;;;;;;;2.33;2.07;;;23.80;70.50;;;;;;5098048;28;20521;-81
2022/07/18 08:49:24;;;;;;;2.87;1.77;;;24.00;70.30;;;;;;5104771;28;20475;-80
2022/07/18 08:52:09;;;;;;;2.60;1.97;;;24.20;71.80;;;;;;5109895;28;20419;-80
2022/07/18 08:54:55;;;;;;;2.87;1.70;;;24.20;72.00;;;;;;5120422;28;20430;-81
2022/07/18 08:57:40;;;;;;;1.57;1.47;;;24.40;72.00;;;;;;5113014;28;20449;-81
2022/07/18 09:00:24;;;;;;;3.93;1.83;;;24.50;71.90;;;;;;5111177;28;20450;-80
2022/07/18 09:03:09;;;;;;;4.20;1.97;;;24.60;70.90;;;;;;5113046;28;20442;-80
2022/07/18 09:06:06;;;;;;;2.30;2.10;;;24.60;70.60;;;;;;5096265;28;20435;-80
2022/07/18 09:09:00;;;;;;;2.33;1.63;;;24.60;66.00;;;;;;5087536;28;20531;-80
2022/07/18 09:12:06;;;;;;;2.10;1.53;;;24.60;69.20;;;;;;5120393;28;20418;-81
2022/07/18 09:14:51;;;;;;;2.00;1.40;;;24.70;67.30;;;;;;5101930;28;20445;-80
2022/07/18 09:17:37;;;;;;;1.60;1.50;;;24.90;67.40;;;;;;5102215;28;20419;-79
2022/07/18 09:20:22;;;;;;;4.27;1.60;;;24.90;66.20;;;;;;5121957;27;20423;-81
2022/07/18 09:23:17;;;;;;;2.47;2.27;;;25.00;65.60;;;;;;5100474;28;20445;-82
2022/07/18 09:26:03;;;;;;;2.13;1.40;;;25.10;65.00;;;;;;5088366;28;20439;-82
2022/07/18 09:28:50;;;;;;;2.10;1.70;;;25.10;65.50;;;;;;5080801;28;20615;-80
2022/07/18 09:31:38;;;;;;;2.40;1.80;;;25.30;63.20;;;;;;5065227;28;20498;-80
2022/07/18 09:34:37;;;;;;;1.97;1.70;;;25.30;62.60;;;;;;5082229;28;20424;-80
2022/07/18 09:37:24;;;;;;;1.97;1.70;;;25.30;65.50;;;;;;5071698;28;20433;-81
2022/07/18 09:40:20;;;;;;;5.20;2.00;;;25.50;61.00;;;;;;5065438;28;20440;-81
2022/07/18 09:43:07;;;;;;;2.60;1.87;;;25.50;60.00;;;;;;5059747;28;20936;-80
2022/07/18 09:45:54;;;;;;;3.73;2.57;;;25.50;59.90;;;;;;5080626;28;20455;-80
2022/07/18 09:48:39;;;;;;;1.77;1.37;;;25.70;65.10;;;;;;5075508;28;20488;-80
2022/07/18 09:51:24;;;;;;;2.70;1.70;;;25.80;60.30;;;;;;5073570;28;20469;-79
2022/07/18 09:54:08;;;;;;;4.03;2.57;;;25.80;61.50;;;;;;5076759;28;20450;-80
2022/07/18 09:56:52;;;;;;;1.43;1.33;;;25.90;56.90;;;;;;5077774;28;20463;-79
2022/07/18 09:59:37;;;;;;;3.20;1.50;;;26.20;62.50;;;;;;5096729;28;20779;-81
2022/07/18 10:02:23;;;;;;;2.03;1.60;;;26.40;59.90;;;;;;5114228;27;20702;-80
2022/07/18 10:05:11;;;;;;;4.30;1.73;;;26.50;62.50;;;;;;5111440;28;20776;-79
2022/07/18 10:07:57;;;;;;;1.70;1.60;;;26.60;61.50;;;;;;5079553;28;20439;-80
2022/07/18 10:10:44;;;;;;;4.03;1.63;;;26.70;60.20;;;;;;5068329;28;20505;-80
2022/07/18 10:13:31;;;;;;;1.93;1.37;;;26.70;56.20;;;;;;5076534;28;20481;-81
2022/07/18 10:16:16;;;;;;;4.40;1.83;;;26.90;54.90;;;;;;5087587;28;20448;-78
2022/07/18 10:19:01;;;;;;;1.90;1.80;;;27.00;54.90;;;;;;5080404;28;20520;-79
2022/07/18 10:22:08;;;;;;;2.30;2.03;;;27.10;57.50;;;;;;5059929;28;20443;-79
2022/07/18 10:24:53;;;;;;;2.93;1.87;;;27.10;55.00;;;;;;5038308;28;20472;-78
2022/07/18 10:27:51;;;;;;;1.67;1.57;;;27.10;55.70;;;;;;5031886;28;20445;-80
2022/07/18 10:30:39;;;;;;;2.30;2.10;;;27.30;56.40;;;;;;5034252;28;20856;-81
2022/07/18 10:33:43;;;;;;;2.10;1.90;;;27.40;55.00;;;;;;5032073;28;20579;-77
2022/07/18 10:36:31;;;;;;;2.17;1.60;;;27.60;56.20;;;;;;5041967;28;20560;-81
2022/07/18 10:39:20;;;;;;;2.27;1.27;;;27.70;54.80;;;;;;5009552;28;20453;-81
2022/07/18 10:42:14;;;;;;;4.70;1.40;;;27.80;53.60;;;;;;5021125;28;20521;-81
2022/07/18 10:45:00;;;;;;;1.70;1.57;;;27.80;53.40;;;;;;5007045;28;20515;-80
2022/07/18 10:47:46;;;;;;;2.73;1.40;;;27.80;53.40;;;;;;5024033;28;20442;-80
2022/07/18 10:51:01;;;;;;;2.53;1.20;;;27.40;52.20;;;;;;5006447;28;20435;-81
2022/07/18 10:54:06;;;;;;;1.73;1.63;;;27.60;53.10;;;;;;5020048;28;20433;-80
2022/07/18 10:57:11;;;;;;;1.30;1.10;;;27.50;55.20;;;;;;5070356;28;20528;-80
2022/07/18 11:00:08;;;;;;;1.97;1.30;;;27.60;53.00;;;;;;5082878;28;20482;-80
2022/07/18 11:03:13;;;;;;;2.90;2.70;;;27.70;53.60;;;;;;5088257;28;20993;-80
2022/07/18 11:06:01;;;;;;;1.90;1.53;;;27.90;54.00;;;;;;5068740;28;20519;-80
2022/07/18 11:08:45;;;;;;;1.70;1.60;;;28.00;55.00;;;;;;5082384;28;20452;-79
2022/07/18 11:11:30;;;;;;;1.50;1.40;;;28.20;56.30;;;;;;5063038;28;20427;-80
2022/07/18 11:14:54;;;;;;;1.57;1.40;;;28.30;56.00;;;;;;5106572;27;20851;-81
2022/07/18 11:17:58;;;;;;;3.27;1.57;;;28.40;54.30;;;;;;5107867;27;20427;-78
2022/07/18 11:20:47;;;;;;;1.93;1.33;;;28.50;52.40;;;;;;5101001;27;21007;-79
2022/07/18 11:23:42;;;;;;;1.83;1.73;;;28.40;52.50;;;;;;5121557;27;20512;-80
2022/07/18 11:26:27;;;;;;;2.13;1.53;;;28.70;54.30;;;;;;5105870;27;20429;-80
2022/07/18 11:29:15;;;;;;;1.77;1.50;;;28.70;53.90;;;;;;5102392;28;21018;-81
2022/07/18 11:32:02;;;;;;;1.40;1.30;;;28.90;52.90;;;;;;5104178;28;20510;-82
2022/07/18 11:34:51;;;;;;;1.60;1.50;;;28.90;54.40;;;;;;5123149;28;20445;-80
2022/07/18 11:37:37;;;;;;;1.37;1.27;;;28.90;52.70;;;;;;5118937;28;20451;-82
2022/07/18 11:40:22;;;;;;;2.30;1.30;;;28.90;50.60;;;;;;5121681;28;20917;-82
2022/07/18 11:43:06;;;;;;;1.70;1.60;;;29.70;50.20;;;;;;5122503;28;20469;-81
2022/07/18 11:46:02;;;;;;;2.37;1.70;;;30.10;49.40;;;;;;5116369;28;20429;-81
2022/07/18 11:49:01;;;;;;;1.50;1.40;;;30.40;48.30;;;;;;5113478;27;20473;-83
2022/07/18 11:51:45;;;;;;;1.50;1.40;;;30.60;50.30;;;;;;5104109;28;20477;-82
2022/07/18 11:54:32;;;;;;;1.40;1.30;;;30.80;50.70;;;;;;5093222;27;20446;-82
2022/07/18 11:57:27;;;;;;;1.47;1.37;;;30.90;47.50;;;;;;5079068;28;20494;-82
2022/07/18 12:00:16;;;;;;;4.80;1.60;;;31.00;48.50;;;;;;5102293;28;20455;-80
2022/07/18 12:03:23;;;;;;;3.67;1.80;;;31.10;48.10;;;;;;5103885;28;20220;-81
2022/07/18 12:06:24;;;;;;;1.75;1.65;;;31.60;48.40;;;;;;5100608;28;20263;-82
2022/07/18 12:09:09;;;;;;;3.80;2.53;;;31.40;45.50;;;;;;5079526;28;20223;-82
2022/07/18 12:11:53;;;;;;;2.50;1.63;;;31.40;47.00;;;;;;5102677;28;20201;-83
2022/07/18 12:14:39;;;;;;;1.80;1.52;;;31.70;46.40;;;;;;5111183;28;20521;-79
2022/07/18 12:17:43;;;;;;;1.60;1.50;;;31.90;45.00;;;;;;5104620;28;20165;-83
2022/07/18 12:20:27;;;;;;;1.63;1.52;;;32.20;44.50;;;;;;5088862;28;20658;-82
2022/07/18 12:23:13;;;;;;;1.83;1.60;;;32.50;45.00;;;;;;5107772;28;20261;-80
2022/07/18 12:25:59;;;;;;;5.32;1.73;;;32.60;43.30;;;;;;5109004;28;20192;-81
2022/07/18 12:28:44;;;;;;;2.95;1.63;;;32.60;43.40;;;;;;5112840;28;20200;-82
2022/07/18 12:31:42;;;;;;;2.08;1.83;;;32.40;43.10;;;;;;5094558;28;20290;-81
2022/07/18 12:34:27;;;;;;;1.40;1.30;;;32.60;42.30;;;;;;5102509;28;20261;-82
2022/07/18 12:37:11;;;;;;;2.10;1.95;;;33.00;42.30;;;;;;5080182;28;20242;-82
2022/07/18 12:39:59;;;;;;;2.42;2.22;;;32.40;40.90;;;;;;5120284;28;20521;-82
2022/07/18 12:42:43;;;;;;;1.73;1.63;;;32.30;40.90;;;;;;5113607;28;20225;-82
2022/07/18 12:45:28;;;;;;;1.48;1.38;;;31.70;41.00;;;;;;5116862;28;20227;-84
2022/07/18 12:48:13;;;;;;;1.45;1.35;;;32.40;39.50;;;;;;5091978;28;20230;-81
2022/07/18 12:51:08;;;;;;;1.55;1.45;;;33.10;39.50;;;;;;5113559;27;20186;-81
2022/07/18 12:53:53;;;;;;;1.65;1.55;;;32.60;40.20;;;;;;5111788;28;20184;-83
2022/07/18 12:56:37;;;;;;;2.00;1.90;;;32.50;42.00;;;;;;5112562;28;20235;-83
2022/07/18 12:59:22;;;;;;;1.88;1.77;;;32.90;41.80;;;;;;5115002;28;20262;-82
2022/07/18 13:02:07;;;;;;;2.30;2.10;;;33.40;39.90;;;;;;5099083;28;20239;-82
2022/07/18 13:04:52;;;;;;;1.73;1.55;;;32.70;42.90;;;;;;5103034;28;20221;-83
2022/07/18 13:07:37;;;;;;;1.70;1.55;;;33.00;43.00;;;;;;5127526;28;20183;-83
2022/07/18 13:10:21;;;;;;;2.42;1.58;;;33.90;41.00;;;;;;5119911;28;20518;-81
2022/07/18 13:13:07;;;;;;;1.90;1.67;;;34.30;39.60;;;;;;5103819;28;20264;-81
2022/07/18 13:15:51;;;;;;;1.83;1.73;;;33.80;41.90;;;;;;5114184;27;20316;-82
2022/07/18 13:18:36;;;;;;;2.22;1.52;;;33.30;43.60;;;;;;5098321;28;20254;-81
2022/07/18 13:21:20;;;;;;;2.65;1.85;;;34.40;41.30;;;;;;5110457;28;20217;-81
2022/07/18 13:24:05;;;;;;;2.08;1.88;;;34.50;41.00;;;;;;5099715;28;20653;-80
2022/07/18 13:26:50;;;;;;;2.15;2.05;;;34.60;39.90;;;;;;5117113;28;20180;-80
2022/07/18 13:29:35;;;;;;;2.20;1.98;;;35.20;40.70;;;;;;5054459;28;20304;-82
2022/07/18 13:32:19;;;;;;;1.50;1.40;;;35.40;40.90;;;;;;5074328;28;20356;-80
2022/07/18 13:35:04;;;;;;;1.45;1.15;;;35.60;40.30;;;;;;5077285;28;20208;-82
2022/07/18 13:37:49;;;;;;;7.45;1.60;;;35.00;41.50;;;;;;5069108;28;20209;-79
2022/07/18 13:40:33;;;;;;;2.33;1.60;;;34.80;38.90;;;;;;5084173;28;20200;-82
2022/07/18 13:43:19;;;;;;;1.40;1.30;;;34.70;38.00;;;;;;5066429;28;20272;-82
2022/07/18 13:46:40;;;;;;;2.00;1.80;;;35.00;40.40;;;;;;5075620;28;20190;-84
2022/07/18 13:49:37;;;;;;;1.80;1.65;;;35.20;39.50;;;;;;5038636;28;20211;-81
2022/07/18 13:52:44;;;;;;;1.92;1.40;;;33.40;39.50;;;;;;4981466;28;20269;-84
2022/07/18 13:55:29;;;;;;;4.60;1.40;;;34.30;39.20;;;;;;4950229;29;20205;-81
2022/07/18 13:58:17;;;;;;;1.35;1.25;;;34.40;43.00;;;;;;4973664;28;20301;-82
2022/07/18 14:01:02;;;;;;;1.77;1.67;;;34.20;41.60;;;;;;4983492;28;20275;-79
2022/07/18 14:03:47;;;;;;;2.60;1.70;;;33.80;39.30;;;;;;4997762;28;20641;-79
2022/07/18 14:06:35;;;;;;;1.98;1.88;;;33.90;39.70;;;;;;4993309;28;20211;-82
2022/07/18 14:09:19;;;;;;;2.22;2.03;;;33.50;41.30;;;;;;4978196;28;20653;-83
2022/07/18 14:12:04;;;;;;;1.60;1.50;;;33.30;41.10;;;;;;4992537;28;20288;-81
2022/07/18 14:14:49;;;;;;;2.40;2.20;;;32.90;40.40;;;;;;4995398;28;20193;-84
2022/07/18 14:17:34;;;;;;;2.45;1.73;;;33.00;43.30;;;;;;4991600;28;20200;-83
2022/07/18 14:20:18;;;;;;;4.85;1.77;;;31.90;40.20;;;;;;5008817;28;20223;-82
2022/07/18 14:23:03;;;;;;;2.20;1.90;;;31.50;41.60;;;;;;5026610;28;20193;-82
2022/07/18 14:25:52;;;;;;;5.80;1.60;;;31.80;41.30;;;;;;5101361;28;20181;-81
2022/07/18 14:28:37;;;;;;;2.38;1.90;;;31.50;41.70;;;;;;5082827;28;20236;-81